createdAt,value
2022-08-07T00:02:39.723Z,99054.28
2022-08-07T00:05:05.824Z,99059.56
2022-08-07T00:07:40.543Z,99051.88
2022-08-07T00:10:26.082Z,99049.34
2022-08-07T00:13:00.238Z,99053.25
2022-08-07T00:15:37.725Z,99060.13
2022-08-07T00:18:24.049Z,99044.44
2022-08-07T00:21:01.876Z,99050.22
2022-08-07T00:23:36.773Z,99041.53
2022-08-07T00:26:18.607Z,99051.03
2022-08-07T00:29:01.303Z,99040.06
2022-08-07T00:31:37.340Z,99036.28
2022-08-07T00:34:08.541Z,99040.81
2022-08-07T00:36:38.516Z,99038.84
2022-08-07T00:39:12.838Z,99032.94
2022-08-07T00:42:01.812Z,99026.50
2022-08-07T00:44:34.984Z,99037.47
2022-08-07T00:47:15.549Z,99045.19
2022-08-07T00:50:19.096Z,99030.19
2022-08-07T00:52:48.285Z,99031.28
2022-08-07T00:55:46.488Z,99028.56
2022-08-07T00:58:06.959Z,99029.88
2022-08-07T01:00:36.329Z,99039.22
2022-08-07T01:03:05.794Z,99029.53
2022-08-07T01:05:36.543Z,99029.53
2022-08-07T01:08:08.971Z,99031.31
2022-08-07T01:10:39.427Z,99030.13
2022-08-07T01:13:16.866Z,99032.94
2022-08-07T01:16:05.727Z,99026.97
2022-08-07T01:18:35.571Z,99021.41
2022-08-07T01:21:22.753Z,99035.09
2022-08-07T01:23:52.794Z,99036.81
2022-08-07T01:26:23.232Z,99032.09
2022-08-07T01:28:56.511Z,99033.09
2022-08-07T01:31:42.327Z,99031.31
2022-08-07T01:34:18.593Z,99029.53
2022-08-07T01:36:52.663Z,99023.81
2022-08-07T01:39:40.504Z,99022.03
2022-08-07T01:42:39.810Z,99030.38
2022-08-07T01:45:15.867Z,99024.38
2022-08-07T01:48:29.896Z,99024.66
2022-08-07T01:50:42.845Z,99025.63
2022-08-07T01:53:21.740Z,99028.88
2022-08-07T01:56:06.592Z,99026.66
2022-08-07T01:58:40.848Z,99027.19
2022-08-07T02:01:25.709Z,99024.97
2022-08-07T02:04:06.536Z,99022.56
2022-08-07T02:06:37.275Z,99027.38
2022-08-07T02:09:08.332Z,99027.63
2022-08-07T02:12:05.073Z,99027.16
2022-08-07T02:14:35.742Z,99025.16
2022-08-07T02:17:06.165Z,99031.59
2022-08-07T02:20:04.606Z,99024.34
2022-08-07T02:22:27.926Z,99027.59
2022-08-07T02:24:59.086Z,99027.81
2022-08-07T02:27:34.754Z,99020.41
2022-08-07T02:30:07.086Z,99030.59
2022-08-07T02:33:00.206Z,99030.13
2022-08-07T02:36:29.322Z,99027.97
2022-08-07T02:38:19.110Z,99019.28
2022-08-07T02:40:58.773Z,99015.53
2022-08-07T02:43:29.460Z,99009.59
2022-08-07T02:46:02.396Z,99016.56
2022-08-07T02:48:32.661Z,99011.56
2022-08-07T02:51:28.963Z,99015.53
2022-08-07T02:53:59.107Z,99004.84
2022-08-07T02:56:29.102Z,99006.09
2022-08-07T02:59:03.810Z,99009.09
2022-08-07T03:01:39.273Z,99012.09
2022-08-07T03:04:12.808Z,99010.84
2022-08-07T03:06:44.581Z,99004.59
2022-08-07T03:09:42.141Z,99002.63
2022-08-07T03:12:21.756Z,99002.63
2022-08-07T03:14:52.898Z,98998.16
2022-08-07T03:17:22.387Z,98996.41
2022-08-07T03:19:55.075Z,98995.94
2022-08-07T03:22:29.652Z,98992.44
2022-08-07T03:25:00.494Z,98989.94
2022-08-07T03:27:59.127Z,98988.19
2022-08-07T03:30:20.632Z,98987.69
2022-08-07T03:32:58.754Z,98981.72
2022-08-07T03:35:43.395Z,98984.47
2022-08-07T03:38:20.938Z,98990.19
2022-08-07T03:40:57.265Z,98992.97
2022-08-07T03:43:32.350Z,98990.19
2022-08-07T03:46:03.212Z,98987.19
2022-08-07T03:48:32.891Z,98994.16
2022-08-07T03:51:03.321Z,98995.16
2022-08-07T03:54:05.499Z,98996.13
2022-08-07T03:56:33.402Z,98998.34
2022-08-07T03:59:09.436Z,99001.09
2022-08-07T04:01:45.780Z,98996.63
2022-08-07T04:04:17.437Z,99000.84
2022-08-07T04:06:50.837Z,99002.63
2022-08-07T04:09:23.413Z,98995.91
2022-08-07T04:12:25.795Z,98996.16
2022-08-07T04:14:46.289Z,98990.91
2022-08-07T04:17:21.282Z,98995.88
2022-08-07T04:19:54.507Z,98994.13
2022-08-07T04:22:27.505Z,98995.63
2022-08-07T04:25:01.652Z,98997.59
2022-08-07T04:27:39.321Z,98997.38
2022-08-07T04:30:35.684Z,99001.88
2022-08-07T04:33:13.989Z,99002.13
2022-08-07T04:35:50.212Z,99005.38
2022-08-07T04:38:20.012Z,99007.59
2022-08-07T04:40:51.954Z,99006.84
2022-08-07T04:43:53.482Z,99005.84
2022-08-07T04:46:29.290Z,99009.88
2022-08-07T04:49:25.602Z,99010.63
2022-08-07T04:52:04.160Z,99005.34
2022-08-07T04:54:37.581Z,99011.56
2022-08-07T04:58:16.264Z,99017.53
2022-08-07T05:00:36.743Z,99016.31
2022-08-07T05:04:00.370Z,99016.03
2022-08-07T05:06:20.148Z,99016.78
2022-08-07T05:09:19.354Z,99014.25
2022-08-07T05:12:10.797Z,99018.94
2022-08-07T05:14:53.976Z,99018.66
2022-08-07T05:17:52.480Z,99019.84
2022-08-07T05:20:24.795Z,99022.31
2022-08-07T05:23:00.245Z,99017.00
2022-08-07T05:26:10.582Z,99022.44
2022-08-07T05:28:23.047Z,99019.63
2022-08-07T05:30:57.307Z,99016.31
2022-08-07T05:33:31.373Z,99023.22
2022-08-07T05:36:06.698Z,99028.81
2022-08-07T05:39:00.495Z,99024.91
2022-08-07T05:41:26.180Z,99017.81
2022-08-07T05:44:15.935Z,99025.47
2022-08-07T05:47:00.216Z,99025.88
2022-08-07T05:49:40.965Z,99023.03
2022-08-07T05:52:11.689Z,99028.88
2022-08-07T05:54:44.587Z,99021.44
2022-08-07T05:57:23.854Z,99024.09
2022-08-07T05:59:57.746Z,99020.69
2022-08-07T06:02:29.568Z,99026.63
2022-08-07T06:05:05.686Z,99029.38
2022-08-07T06:08:30.297Z,99022.00
2022-08-07T06:10:26.375Z,99025.84
2022-08-07T06:12:55.726Z,99025.84
2022-08-07T06:15:42.258Z,99019.00
2022-08-07T06:18:12.344Z,99012.34
2022-08-07T06:20:50.421Z,99014.13
2022-08-07T06:24:38.408Z,99018.06
2022-08-07T06:26:27.484Z,99012.31
2022-08-07T06:29:01.093Z,99007.97
2022-08-07T06:31:46.974Z,99008.09
2022-08-07T06:34:20.730Z,99010.75
2022-08-07T06:36:51.998Z,99009.34
2022-08-07T06:40:17.252Z,99011.25
2022-08-07T06:42:19.300Z,99017.75
2022-08-07T06:44:51.161Z,99019.16
2022-08-07T06:47:21.441Z,99016.84
2022-08-07T06:49:58.684Z,99011.94
2022-08-07T06:52:35.752Z,99012.75
2022-08-07T06:55:31.842Z,99010.25
2022-08-07T06:58:04.554Z,99010.34
2022-08-07T07:00:43.277Z,99003.56
2022-08-07T07:03:14.333Z,99008.59
2022-08-07T07:06:03.282Z,99006.03
2022-08-07T07:08:35.174Z,99004.53
2022-08-07T07:11:14.479Z,99001.03
2022-08-07T07:14:01.727Z,99004.69
2022-08-07T07:16:34.165Z,99003.34
2022-08-07T07:19:55.799Z,99000.84
2022-08-07T07:22:33.768Z,98989.06
2022-08-07T07:25:02.759Z,98993.59
2022-08-07T07:27:35.598Z,99000.59
2022-08-07T07:30:37.832Z,98989.72
2022-08-07T07:33:08.831Z,98985.69
2022-08-07T07:35:54.151Z,98985.91
2022-08-07T07:38:32.954Z,98984.25
2022-08-07T07:41:10.169Z,98975.56
2022-08-07T07:44:13.947Z,98977.94
2022-08-07T07:46:36.936Z,98964.69
2022-08-07T07:50:34.082Z,98981.19
2022-08-07T07:52:20.618Z,98967.38
2022-08-07T07:54:53.092Z,98969.00
2022-08-07T07:57:43.728Z,98962.09
2022-08-07T08:00:29.063Z,98967.16
2022-08-07T08:03:16.942Z,98965.38
2022-08-07T08:06:00.397Z,98966.88
2022-08-07T08:08:36.950Z,98966.69
2022-08-07T08:11:16.173Z,98966.53
2022-08-07T08:13:54.227Z,98956.97
2022-08-07T08:16:29.818Z,98966.09
2022-08-07T08:19:00.422Z,98968.47
2022-08-07T08:22:02.650Z,98965.19
2022-08-07T08:24:54.840Z,98967.00
2022-08-07T08:27:39.422Z,98965.94
2022-08-07T08:30:17.560Z,98967.53
2022-08-07T08:33:02.972Z,98975.28
2022-08-07T08:35:39.132Z,98961.50
2022-08-07T08:38:18.090Z,98962.94
2022-08-07T08:40:58.288Z,98961.19
2022-08-07T08:43:42.052Z,98967.66
2022-08-07T08:46:29.495Z,98974.47
2022-08-07T08:49:32.949Z,98966.41
2022-08-07T08:52:14.096Z,98964.16
2022-08-07T08:54:57.971Z,98967.53
2022-08-07T08:57:43.127Z,98959.53
2022-08-07T09:00:15.168Z,98960.78
2022-08-07T09:03:07.480Z,98954.31
2022-08-07T09:05:58.788Z,98957.03
2022-08-07T09:08:33.933Z,98955.28
2022-08-07T09:11:24.190Z,98955.16
2022-08-07T09:14:22.419Z,98941.28
2022-08-07T09:17:05.578Z,98947.38
2022-08-07T09:20:35.354Z,98941.00
2022-08-07T09:24:32.368Z,98938.72
2022-08-07T09:26:30.254Z,98943.03
2022-08-07T09:30:06.308Z,98933.28
2022-08-07T09:32:35.062Z,98928.22
2022-08-07T09:36:01.190Z,98915.28
2022-08-07T09:38:02.041Z,98925.63
2022-08-07T09:40:38.641Z,98925.13
2022-08-07T09:44:03.493Z,98917.00
2022-08-07T09:47:49.842Z,98918.47
2022-08-07T09:50:00.573Z,98901.78
2022-08-07T09:52:48.573Z,98894.75
2022-08-07T09:55:29.454Z,98896.25
2022-08-07T09:58:32.608Z,98905.66
2022-08-07T10:01:51.172Z,98899.94
2022-08-07T10:04:38.213Z,98889.25
2022-08-07T10:07:31.606Z,98885.91
2022-08-07T10:10:21.028Z,98887.69
2022-08-07T10:13:29.881Z,98891.06
2022-08-07T10:16:15.111Z,98879.00
2022-08-07T10:19:03.652Z,98873.75
2022-08-07T10:22:16.057Z,98860.34
2022-08-07T10:25:20.803Z,98861.44
2022-08-07T10:28:29.873Z,98861.00
2022-08-07T10:31:38.764Z,98849.97
2022-08-07T10:34:41.064Z,98854.50
2022-08-07T10:38:00.558Z,98851.97
2022-08-07T10:40:34.031Z,98852.47
2022-08-07T10:43:29.839Z,98845.47
2022-08-07T10:46:09.415Z,98840.75
2022-08-07T10:49:13.791Z,98842.59
2022-08-07T10:52:12.682Z,98836.34
2022-08-07T10:55:26.816Z,98835.59
2022-08-07T10:58:13.647Z,98835.78
2022-08-07T11:00:50.205Z,98822.03
2022-08-07T11:03:37.321Z,98828.34
2022-08-07T11:06:42.523Z,98826.53
2022-08-07T11:10:08.855Z,98820.38
2022-08-07T11:12:32.222Z,98815.16
2022-08-07T11:15:17.260Z,98803.22
2022-08-07T11:17:54.197Z,98802.38
2022-08-07T11:20:29.546Z,98798.97
2022-08-07T11:23:09.264Z,98795.06
2022-08-07T11:25:48.165Z,98790.81
2022-08-07T11:28:24.870Z,98798.78
2022-08-07T11:30:54.314Z,98794.41
2022-08-07T11:34:00.092Z,98785.00
2022-08-07T11:36:41.675Z,98783.19
2022-08-07T11:39:23.456Z,98785.00
2022-08-07T11:42:19.501Z,98780.34
2022-08-07T11:45:12.990Z,98779.88
2022-08-07T11:47:59.027Z,98764.03
2022-08-07T11:50:57.936Z,98762.06
2022-08-07T11:54:01.764Z,98761.84
2022-08-07T11:56:53.128Z,98758.19
2022-08-07T12:00:10.083Z,98762.81
2022-08-07T12:03:44.541Z,98761.63
2022-08-07T12:06:37.639Z,98757.84
2022-08-07T12:09:31.998Z,98752.44
2022-08-07T12:12:13.785Z,98760.84
2022-08-07T12:15:01.673Z,98746.47
2022-08-07T12:17:37.232Z,98746.84
2022-08-07T12:20:18.491Z,98747.81
2022-08-07T12:24:05.736Z,98747.56
2022-08-07T12:26:47.049Z,98736.88
2022-08-07T12:29:38.179Z,98732.47
2022-08-07T12:32:39.603Z,98730.03
2022-08-07T12:35:11.953Z,98733.69
2022-08-07T12:38:11.288Z,98732.38
2022-08-07T12:40:47.560Z,98727.84
2022-08-07T12:44:02.540Z,98731.03
2022-08-07T12:46:26.378Z,98724.28
2022-08-07T12:49:10.130Z,98733.69
2022-08-07T12:52:14.548Z,98719.06
2022-08-07T12:54:59.022Z,98716.97
2022-08-07T12:57:38.955Z,98714.16
2022-08-07T13:00:50.088Z,98709.03
2022-08-07T13:04:00.648Z,98720.50
2022-08-07T13:06:37.014Z,98709.38
2022-08-07T13:10:21.532Z,98697.34
2022-08-07T13:12:43.544Z,98702.22
2022-08-07T13:15:51.188Z,98699.31
2022-08-07T13:18:30.475Z,98698.38
2022-08-07T13:21:12.585Z,98700.31
2022-08-07T13:24:04.046Z,98695.22
2022-08-07T13:26:46.073Z,98694.59
2022-08-07T13:29:19.954Z,98681.81
2022-08-07T13:32:32.404Z,98672.28
2022-08-07T13:35:08.823Z,98674.84
2022-08-07T13:37:58.641Z,98674.72
2022-08-07T13:40:36.606Z,98660.84
2022-08-07T13:43:15.402Z,98668.53
2022-08-07T13:46:12.157Z,98663.41
2022-08-07T13:48:40.730Z,98659.63
2022-08-07T13:51:28.031Z,98657.19
2022-08-07T13:54:03.732Z,98656.47
2022-08-07T13:56:41.306Z,98656.22
2022-08-07T13:59:27.577Z,98651.97
2022-08-07T14:02:16.513Z,98644.28
2022-08-07T14:04:55.115Z,98638.78
2022-08-07T14:07:31.127Z,98639.03
2022-08-07T14:10:15.650Z,98640.25
2022-08-07T14:12:54.074Z,98641.47
2022-08-07T14:15:35.241Z,98638.78
2022-08-07T14:18:23.766Z,98641.59
2022-08-07T14:21:20.953Z,98633.06
2022-08-07T14:24:03.763Z,98638.53
2022-08-07T14:26:40.729Z,98629.41
2022-08-07T14:30:07.365Z,98635.00
2022-08-07T14:32:13.287Z,98629.66
2022-08-07T14:34:45.876Z,98630.47
2022-08-07T14:37:18.985Z,98632.03
2022-08-07T14:40:15.804Z,98637.91
2022-08-07T14:43:55.239Z,98628.16
2022-08-07T14:45:46.896Z,98626.31
2022-08-07T14:48:20.400Z,98630.84
2022-08-07T14:51:01.684Z,98631.72
2022-08-07T14:56:30.090Z,98621.75
2022-08-07T14:59:14.128Z,98625.66
2022-08-07T15:01:54.361Z,98626.94
2022-08-07T15:04:28.979Z,98623.03
2022-08-07T15:10:00.765Z,98621.16
2022-08-07T15:15:38.470Z,98613.84
2022-08-07T15:21:08.305Z,98624.09
2022-08-07T15:25:15.012Z,98617.44
2022-08-07T15:26:55.666Z,98622.59
2022-08-07T15:30:09.568Z,98613.72
2022-08-07T15:32:17.643Z,98620.03
2022-08-07T15:35:07.222Z,98612.72
2022-08-07T15:38:04.813Z,98609.06
2022-08-07T15:40:33.851Z,98611.63
2022-08-07T15:43:53.537Z,98605.78
2022-08-07T15:46:47.361Z,98612.75
2022-08-07T15:50:03.986Z,98600.56
2022-08-07T15:52:30.712Z,98603.34
2022-08-07T15:55:03.337Z,98601.66
2022-08-07T15:57:48.155Z,98608.38
2022-08-07T16:00:31.100Z,98607.16
2022-08-07T16:03:04.980Z,98608.13
2022-08-07T16:05:34.731Z,98602.06
2022-08-07T16:08:30.285Z,98598.28
2022-08-07T16:11:27.240Z,98592.16
2022-08-07T16:14:03.440Z,98601.03
2022-08-07T16:16:57.816Z,98594.72
2022-08-07T16:19:59.519Z,98600.91
2022-08-07T16:22:33.882Z,98595.94
2022-08-07T16:25:23.092Z,98603.47
2022-08-07T16:30:05.662Z,98599.56
2022-08-07T16:31:51.108Z,98605.53
2022-08-07T16:34:48.811Z,98592.63
2022-08-07T16:38:04.399Z,98593.38
2022-08-07T16:40:35.370Z,98595.16
2022-08-07T16:44:06.303Z,98589.56
2022-08-07T16:47:07.843Z,98595.66
2022-08-07T16:50:28.245Z,98589.81
2022-08-07T16:53:55.393Z,98588.09
2022-08-07T16:56:07.498Z,98590.75
2022-08-07T16:59:14.450Z,98593.56
2022-08-07T17:02:03.889Z,98586.50
2022-08-07T17:04:51.016Z,98590.63
2022-08-07T17:07:51.556Z,98589.06
2022-08-07T17:10:33.912Z,98595.59
2022-08-07T17:14:19.049Z,98586.50
2022-08-07T17:17:01.110Z,98589.63
2022-08-07T17:20:02.543Z,98600.53
2022-08-07T17:22:37.764Z,98592.75
2022-08-07T17:25:19.268Z,98596.00
2022-08-07T17:28:10.099Z,98598.53
2022-08-07T17:31:15.597Z,98595.22
2022-08-07T17:34:17.950Z,98590.72
2022-08-07T17:36:57.792Z,98597.38
2022-08-07T17:39:57.698Z,98598.72
2022-08-07T17:42:59.620Z,98596.41
2022-08-07T17:45:46.696Z,98595.28
2022-08-07T17:48:31.132Z,98600.44
2022-08-07T17:51:21.569Z,98593.28
2022-08-07T17:54:39.711Z,98592.41
2022-08-07T17:57:32.035Z,98591.53
2022-08-07T18:00:32.755Z,98589.06
2022-08-07T18:03:25.623Z,98591.50
2022-08-07T18:06:09.515Z,98591.94
2022-08-07T18:09:01.857Z,98589.03
2022-08-07T18:12:16.403Z,98598.56
2022-08-07T18:14:56.374Z,98601.69
2022-08-07T18:18:46.070Z,98599.34
2022-08-07T18:21:12.638Z,98605.72
2022-08-07T18:23:42.970Z,98604.13
2022-08-07T18:26:17.462Z,98603.09
2022-08-07T18:30:06.026Z,98604.75
2022-08-07T18:32:31.545Z,98605.81
2022-08-07T18:35:17.938Z,98609.53
2022-08-07T18:38:59.368Z,98624.25
2022-08-07T18:41:20.554Z,98622.50
2022-08-07T18:44:09.218Z,98632.06
2022-08-07T18:46:46.236Z,98631.94
2022-08-07T18:50:30.206Z,98636.47
2022-08-07T18:52:54.434Z,98636.78
2022-08-07T18:55:40.597Z,98644.88
2022-08-07T18:58:26.248Z,98647.06
2022-08-07T19:01:09.230Z,98649.56
2022-08-07T19:04:09.592Z,98655.47
2022-08-07T19:06:53.255Z,98655.63
2022-08-07T19:09:55.329Z,98659.16
2022-08-07T19:13:10.094Z,98671.78
2022-08-07T19:16:04.841Z,98676.75
2022-08-07T19:18:45.096Z,98669.41
2022-08-07T19:21:48.002Z,98671.47
2022-08-07T19:24:30.040Z,98679.53
2022-08-07T19:28:58.901Z,98680.22
2022-08-07T19:31:05.897Z,98675.50
2022-08-07T19:32:47.476Z,98671.38
2022-08-07T19:35:24.612Z,98682.03
2022-08-07T19:37:59.533Z,98679.53
2022-08-07T19:40:33.419Z,98678.31
2022-08-07T19:43:12.708Z,98682.72
2022-08-07T19:46:04.698Z,98683.22
2022-08-07T19:48:44.023Z,98685.97
2022-08-07T19:51:19.589Z,98689.28
2022-08-07T19:54:30.945Z,98689.22
2022-08-07T19:57:56.638Z,98700.44
2022-08-07T19:59:44.671Z,98693.34
2022-08-07T20:02:19.716Z,98690.66
2022-08-07T20:04:52.004Z,98699.50
2022-08-07T20:07:47.566Z,98697.06
2022-08-07T20:10:37.166Z,98697.06
2022-08-07T20:13:23.773Z,98697.91
2022-08-07T20:15:58.324Z,98696.38
2022-08-07T20:18:32.507Z,98700.09
2022-08-07T20:21:02.944Z,98693.34
2022-08-07T20:23:43.223Z,98696.50
2022-08-07T20:26:29.940Z,98711.03
2022-08-07T20:29:10.750Z,98708.88
2022-08-07T20:31:53.935Z,98712.13
2022-08-07T20:34:49.266Z,98708.47
2022-08-07T20:37:17.308Z,98716.84
2022-08-07T20:40:02.219Z,98706.34
2022-08-07T20:42:33.068Z,98715.25
2022-08-07T20:45:04.586Z,98712.88
2022-08-07T20:47:56.659Z,98717.72
2022-08-07T20:50:30.555Z,98720.34
2022-08-07T20:53:00.478Z,98724.31
2022-08-07T20:55:32.224Z,98717.84
2022-08-07T20:58:12.283Z,98727.28
2022-08-07T21:00:56.196Z,98734.34
2022-08-07T21:03:26.450Z,98730.31
2022-08-07T21:06:03.698Z,98733.66
2022-08-07T21:09:14.200Z,98726.47
2022-08-07T21:11:50.961Z,98721.72
2022-08-07T21:14:33.617Z,98726.00
2022-08-07T21:18:02.950Z,98725.44
2022-08-07T21:20:01.088Z,98728.19
2022-08-07T21:22:37.543Z,98729.31
2022-08-07T21:25:19.710Z,98726.75
2022-08-07T21:28:11.206Z,98733.75
2022-08-07T21:30:58.942Z,98722.69
2022-08-07T21:33:55.230Z,98724.91
2022-08-07T21:36:33.061Z,98723.44
2022-08-07T21:39:48.130Z,98730.50
2022-08-07T21:42:46.807Z,98733.78
2022-08-07T21:46:10.419Z,98732.31
2022-08-07T21:48:43.950Z,98734.88
2022-08-07T21:51:34.472Z,98730.81
2022-08-07T21:54:50.304Z,98728.81
2022-08-07T21:57:44.484Z,98738.19
2022-08-07T22:00:25.115Z,98735.59
2022-08-07T22:03:18.760Z,98738.53
2022-08-07T22:06:29.985Z,98742.56
2022-08-07T22:09:01.118Z,98746.03
2022-08-07T22:11:53.078Z,98749.53
2022-08-07T22:14:36.298Z,98741.56
2022-08-07T22:17:07.303Z,98734.75
2022-08-07T22:19:58.880Z,98744.34
2022-08-07T22:22:40.091Z,98740.44
2022-08-07T22:25:28.726Z,98746.84
2022-08-07T22:28:29.881Z,98746.50
2022-08-07T22:31:09.582Z,98745.00
2022-08-07T22:33:57.169Z,98757.88
2022-08-07T22:36:52.596Z,98751.25
2022-08-07T22:39:35.424Z,98751.56
2022-08-07T22:42:30.382Z,98745.69
2022-08-07T22:45:03.718Z,98739.97
2022-08-07T22:48:31.720Z,98740.13
2022-08-07T22:50:58.960Z,98748.16
2022-08-07T22:54:06.305Z,98746.88
2022-08-07T22:56:35.123Z,98745.97
2022-08-07T22:59:20.075Z,98752.22
2022-08-07T23:02:07.629Z,98745.75
2022-08-07T23:04:56.693Z,98752.91
2022-08-07T23:07:55.689Z,98749.56
2022-08-07T23:11:04.511Z,98741.97
2022-08-07T23:14:16.643Z,98756.78
2022-08-07T23:16:55.562Z,98758.19
2022-08-07T23:20:04.029Z,98751.34
2022-08-07T23:23:12.167Z,98752.25
2022-08-07T23:26:01.540Z,98753.84
2022-08-07T23:29:03.606Z,98753.47
2022-08-07T23:34:18.693Z,98752.13
2022-08-07T23:35:14.481Z,98751.31
2022-08-07T23:38:09.551Z,98747.94
2022-08-07T23:41:09.441Z,98741.50
2022-08-07T23:44:17.037Z,98748.28
2022-08-07T23:47:00.147Z,98742.97
2022-08-07T23:50:06.887Z,98744.03
2022-08-07T23:53:17.343Z,98747.69
2022-08-07T23:56:01.126Z,98749.81
2022-08-07T23:58:42.285Z,98737.44
